createdAt,value
2019-02-19T00:01:57.890Z,8.10
2019-02-19T00:04:24.270Z,8.10
2019-02-19T00:06:50.475Z,8.00
2019-02-19T00:09:16.707Z,8.00
2019-02-19T00:11:42.912Z,8.00
2019-02-19T00:14:09.132Z,7.90
2019-02-19T00:16:35.690Z,7.90
2019-02-19T00:19:02.010Z,7.90
2019-02-19T00:21:28.214Z,7.90
2019-02-19T00:23:54.443Z,8.00
2019-02-19T00:26:20.642Z,8.10
2019-02-19T00:28:46.975Z,8.00
2019-02-19T00:31:13.281Z,8.10
2019-02-19T00:33:39.492Z,8.10
2019-02-19T00:36:05.818Z,8.20
2019-02-19T00:38:32.042Z,8.20
2019-02-19T00:40:58.278Z,8.20
2019-02-19T00:43:30.598Z,8.20
2019-02-19T00:45:56.824Z,8.30
2019-02-19T00:48:23.035Z,8.20
2019-02-19T00:50:49.250Z,8.20
2019-02-19T00:53:15.459Z,8.20
2019-02-19T00:55:41.681Z,8.20
2019-02-19T00:58:07.891Z,8.30
2019-02-19T01:00:34.118Z,8.30
2019-02-19T01:03:00.333Z,8.30
2019-02-19T01:05:26.749Z,8.20
2019-02-19T01:07:52.953Z,8.20
2019-02-19T01:10:19.158Z,8.10
2019-02-19T01:12:45.384Z,8.10
2019-02-19T01:15:11.615Z,8.10
2019-02-19T01:17:38.420Z,8.10
2019-02-19T01:20:07.618Z,8.10
2019-02-19T01:22:33.946Z,8.00
2019-02-19T01:25:00.202Z,8.00
2019-02-19T01:27:26.482Z,8.10
2019-02-19T01:29:52.682Z,8.10
2019-02-19T01:32:18.911Z,8.10
2019-02-19T01:34:45.385Z,8.00
2019-02-19T01:37:11.626Z,8.00
2019-02-19T01:39:37.834Z,8.00
2019-02-19T01:42:06.978Z,8.00
2019-02-19T01:44:33.186Z,8.00
2019-02-19T01:46:59.390Z,8.00
2019-02-19T01:49:25.638Z,7.90
2019-02-19T01:51:51.853Z,7.90
2019-02-19T01:54:18.063Z,7.90
2019-02-19T01:56:44.272Z,7.90
2019-02-19T01:59:10.496Z,7.90
2019-02-19T02:01:36.698Z,7.90
2019-02-19T02:04:03.034Z,7.80
2019-02-19T02:06:29.242Z,7.80
2019-02-19T02:08:55.758Z,7.90
2019-02-19T02:11:21.967Z,7.90
2019-02-19T02:13:48.454Z,8.00
2019-02-19T02:16:14.986Z,8.10
2019-02-19T02:18:41.206Z,8.10
2019-02-19T02:21:07.414Z,8.10
2019-02-19T02:23:33.643Z,8.20
2019-02-19T02:25:59.842Z,8.10
2019-02-19T02:28:26.073Z,8.10
2019-02-19T02:30:52.281Z,8.10
2019-02-19T02:33:18.587Z,8.10
2019-02-19T02:35:44.943Z,8.10
2019-02-19T02:38:11.166Z,8.10
2019-02-19T02:40:37.391Z,8.10
2019-02-19T02:43:03.709Z,8.10
2019-02-19T02:45:29.953Z,8.10
2019-02-19T02:47:56.150Z,8.20
2019-02-19T02:50:22.381Z,8.20
2019-02-19T02:52:48.582Z,8.20
2019-02-19T02:55:14.803Z,8.20
2019-02-19T02:57:41.126Z,8.30
2019-02-19T03:00:09.562Z,8.30
2019-02-19T03:02:35.771Z,8.30
2019-02-19T03:05:02.399Z,8.30
2019-02-19T03:07:30.494Z,8.40
2019-02-19T03:09:56.727Z,8.50
2019-02-19T03:12:23.295Z,8.50
2019-02-19T03:14:49.598Z,8.50
2019-02-19T03:17:15.810Z,8.60
2019-02-19T03:19:42.154Z,8.60
2019-02-19T03:22:08.379Z,8.70
2019-02-19T03:24:34.590Z,8.70
2019-02-19T03:27:00.832Z,8.70
2019-02-19T03:29:27.060Z,8.80
2019-02-19T03:31:53.295Z,8.80
2019-02-19T03:34:19.502Z,8.80
2019-02-19T03:36:45.751Z,8.90
2019-02-19T03:39:11.959Z,8.80
2019-02-19T03:41:38.187Z,8.80
2019-02-19T03:44:04.391Z,8.90
2019-02-19T03:46:30.592Z,8.80
2019-02-19T03:48:56.821Z,8.80
2019-02-19T03:51:23.034Z,8.90
2019-02-19T03:53:49.360Z,8.90
2019-02-19T03:56:15.567Z,8.80
2019-02-19T03:58:41.790Z,8.80
2019-02-19T04:01:08.295Z,8.80
2019-02-19T04:03:34.718Z,8.80
2019-02-19T04:06:01.030Z,8.80
2019-02-19T04:08:27.246Z,8.80
2019-02-19T04:10:53.448Z,8.90
2019-02-19T04:13:22.478Z,8.90
2019-02-19T04:15:48.696Z,8.90
2019-02-19T04:18:14.918Z,8.90
2019-02-19T04:20:42.409Z,8.80
2019-02-19T04:23:08.648Z,8.80
2019-02-19T04:25:34.856Z,8.80
2019-02-19T04:28:02.988Z,8.70
2019-02-19T04:30:29.291Z,8.60
2019-02-19T04:32:55.546Z,8.50
2019-02-19T04:35:21.862Z,8.50
2019-02-19T04:37:48.094Z,8.50
2019-02-19T04:40:14.415Z,8.60
2019-02-19T04:42:40.747Z,8.50
2019-02-19T04:45:07.287Z,8.40
2019-02-19T04:47:33.521Z,8.30
2019-02-19T04:49:59.731Z,8.30
2019-02-19T04:52:25.940Z,8.30
2019-02-19T04:54:52.172Z,8.30
2019-02-19T04:57:18.489Z,8.30
2019-02-19T04:59:44.814Z,8.20
2019-02-19T05:02:11.038Z,8.20
2019-02-19T05:04:37.254Z,8.20
2019-02-19T05:07:03.463Z,8.20
2019-02-19T05:09:29.696Z,8.10
2019-02-19T05:11:55.904Z,8.00
2019-02-19T05:14:22.141Z,8.00
2019-02-19T05:16:48.445Z,8.00
2019-02-19T05:19:14.675Z,8.00
2019-02-19T05:21:40.879Z,8.00
2019-02-19T05:24:07.087Z,8.00
2019-02-19T05:26:33.318Z,8.00
2019-02-19T05:28:59.547Z,8.10
2019-02-19T05:31:26.063Z,8.10
2019-02-19T05:33:52.270Z,8.10
2019-02-19T05:36:18.598Z,8.10
2019-02-19T05:38:44.805Z,8.10
2019-02-19T05:41:11.355Z,8.10
2019-02-19T05:43:37.571Z,8.00
2019-02-19T05:46:03.804Z,8.00
2019-02-19T05:48:30.213Z,8.00
2019-02-19T05:50:56.526Z,8.00
2019-02-19T05:53:22.744Z,8.00
2019-02-19T05:55:48.974Z,8.00
2019-02-19T05:58:15.178Z,8.00
2019-02-19T06:00:41.420Z,8.10
2019-02-19T06:03:07.651Z,8.10
2019-02-19T06:05:33.963Z,8.00
2019-02-19T06:08:00.185Z,8.00
2019-02-19T06:10:26.394Z,8.00
2019-02-19T06:12:52.623Z,8.00
2019-02-19T06:15:18.939Z,8.00
2019-02-19T06:17:45.177Z,8.00
2019-02-19T06:20:11.378Z,8.00
2019-02-19T06:22:37.604Z,8.10
2019-02-19T06:25:06.324Z,8.00
2019-02-19T06:27:32.682Z,8.00
2019-02-19T06:29:59.290Z,8.00
2019-02-19T06:32:25.526Z,8.10
2019-02-19T06:34:51.739Z,8.10
2019-02-19T06:37:17.942Z,8.10
2019-02-19T06:39:44.174Z,8.10
2019-02-19T06:42:10.415Z,8.10
2019-02-19T06:44:36.639Z,8.10
2019-02-19T06:47:06.889Z,8.10
2019-02-19T06:49:31.522Z,8.10
2019-02-19T06:51:57.718Z,8.10
2019-02-19T06:54:23.942Z,8.10
2019-02-19T06:56:50.172Z,8.10
2019-02-19T06:59:16.422Z,8.20
2019-02-19T07:01:47.305Z,8.20
2019-02-19T07:04:18.443Z,8.20
2019-02-19T07:06:44.655Z,8.20
2019-02-19T07:09:10.874Z,8.20
2019-02-19T07:11:37.168Z,8.20
2019-02-19T07:14:03.386Z,8.20
2019-02-19T07:16:32.149Z,8.20
2019-02-19T07:18:58.378Z,8.20
2019-02-19T07:21:24.582Z,8.20
2019-02-19T07:23:50.815Z,8.20
2019-02-19T07:26:17.039Z,8.20
2019-02-19T07:28:43.272Z,8.20
2019-02-19T07:31:09.480Z,8.30
2019-02-19T07:33:36.620Z,8.30
2019-02-19T07:36:02.922Z,8.30
2019-02-19T07:38:29.126Z,8.20
2019-02-19T07:40:58.332Z,8.30
2019-02-19T07:43:24.541Z,8.30
2019-02-19T07:45:52.306Z,8.40
2019-02-19T07:48:18.723Z,8.40
2019-02-19T07:50:45.070Z,8.30
2019-02-19T07:53:11.274Z,8.30
2019-02-19T07:55:37.511Z,8.40
2019-02-19T07:58:03.718Z,8.40
2019-02-19T08:00:29.946Z,8.40
2019-02-19T08:02:56.152Z,8.50
2019-02-19T08:05:22.530Z,8.50
2019-02-19T08:07:48.734Z,8.60
2019-02-19T08:10:14.938Z,8.60
2019-02-19T08:12:41.165Z,8.60
2019-02-19T08:15:09.727Z,8.60
2019-02-19T08:17:35.958Z,8.70
2019-02-19T08:20:03.059Z,8.60
2019-02-19T08:22:29.290Z,8.60
2019-02-19T08:24:55.496Z,8.70
2019-02-19T08:27:22.135Z,8.80
2019-02-19T08:29:48.353Z,8.80
2019-02-19T08:32:14.866Z,8.90
2019-02-19T08:34:41.057Z,9.00
2019-02-19T08:37:07.582Z,9.00
2019-02-19T08:39:33.795Z,8.90
2019-02-19T08:41:59.995Z,9.00
2019-02-19T08:44:26.228Z,9.10
2019-02-19T08:46:52.427Z,9.20
2019-02-19T08:49:18.657Z,9.20
2019-02-19T08:51:44.890Z,9.30
2019-02-19T08:54:11.114Z,9.40
2019-02-19T08:56:37.327Z,9.50
2019-02-19T08:59:03.559Z,9.50
2019-02-19T09:01:29.767Z,9.60
2019-02-19T09:03:55.990Z,9.70
2019-02-19T09:06:22.204Z,9.70
2019-02-19T09:08:48.431Z,9.50
2019-02-19T09:11:14.653Z,9.70
2019-02-19T09:13:40.984Z,9.60
2019-02-19T09:16:07.191Z,9.50
2019-02-19T09:18:33.415Z,9.60
2019-02-19T09:20:59.638Z,9.50
2019-02-19T09:23:25.867Z,9.60
2019-02-19T09:25:52.094Z,9.80
2019-02-19T09:28:18.316Z,9.80
2019-02-19T09:30:44.523Z,9.90
2019-02-19T09:33:10.755Z,9.80
2019-02-19T09:35:36.980Z,9.80
2019-02-19T09:38:03.180Z,9.70
2019-02-19T09:40:29.406Z,9.70
2019-02-19T09:42:55.623Z,9.50
2019-02-19T09:45:21.851Z,9.50
2019-02-19T09:47:48.066Z,9.40
2019-02-19T09:50:14.526Z,9.30
2019-02-19T09:52:40.735Z,9.30
2019-02-19T09:55:07.163Z,9.30
2019-02-19T09:57:33.377Z,9.30
2019-02-19T09:59:59.594Z,9.40
2019-02-19T10:02:25.811Z,9.40
2019-02-19T10:04:52.085Z,9.60
2019-02-19T10:07:19.409Z,9.70
2019-02-19T10:09:45.818Z,9.80
2019-02-19T10:12:12.037Z,9.90
2019-02-19T10:14:38.244Z,9.90
2019-02-19T10:17:04.506Z,10.00
2019-02-19T10:19:30.718Z,10.00
2019-02-19T10:21:56.943Z,10.00
2019-02-19T10:24:23.154Z,10.20
2019-02-19T10:26:49.756Z,10.10
2019-02-19T10:29:16.207Z,10.20
2019-02-19T10:31:42.436Z,10.20
2019-02-19T10:34:08.867Z,10.10
2019-02-19T10:36:35.091Z,10.10
2019-02-19T10:39:01.302Z,10.30
2019-02-19T10:41:27.535Z,10.40
2019-02-19T10:43:53.839Z,10.50
2019-02-19T10:46:20.056Z,10.50
2019-02-19T10:48:46.365Z,10.60
2019-02-19T10:51:12.594Z,10.60
2019-02-19T10:53:53.974Z,10.60
2019-02-19T10:56:20.209Z,10.60
2019-02-19T10:58:46.410Z,10.60
2019-02-19T11:01:12.814Z,10.60
2019-02-19T11:03:39.042Z,10.60
2019-02-19T11:06:05.270Z,10.80
2019-02-19T11:08:31.506Z,10.80
2019-02-19T11:10:57.819Z,10.80
2019-02-19T11:13:24.038Z,10.90
2019-02-19T11:15:50.276Z,10.90
2019-02-19T11:18:16.544Z,10.90
2019-02-19T11:20:42.877Z,11.00
2019-02-19T11:23:09.451Z,11.00
2019-02-19T11:25:35.662Z,11.00
2019-02-19T11:28:01.871Z,11.00
2019-02-19T11:30:28.095Z,11.00
2019-02-19T11:32:54.294Z,11.10
2019-02-19T11:35:20.562Z,11.10
2019-02-19T11:37:46.766Z,11.10
2019-02-19T11:40:13.290Z,11.20
2019-02-19T11:42:39.503Z,11.30
2019-02-19T11:45:11.759Z,11.30
2019-02-19T11:47:38.162Z,11.40
2019-02-19T11:50:05.692Z,11.40
2019-02-19T11:52:31.903Z,11.40
2019-02-19T11:54:58.126Z,11.40
2019-02-19T11:57:24.334Z,11.50
2019-02-19T11:59:50.567Z,11.50
2019-02-19T12:02:16.982Z,11.60
2019-02-19T12:04:43.215Z,11.60
2019-02-19T12:07:09.454Z,11.80
2019-02-19T12:09:35.658Z,11.80
2019-02-19T12:12:01.885Z,11.80
2019-02-19T12:14:28.086Z,11.80
2019-02-19T12:16:54.319Z,11.90
2019-02-19T12:19:20.531Z,12.10
2019-02-19T12:21:46.775Z,12.00
2019-02-19T12:24:12.983Z,12.00
2019-02-19T12:26:39.214Z,12.00
2019-02-19T12:29:05.411Z,12.20
2019-02-19T12:31:31.634Z,12.50
2019-02-19T12:33:57.842Z,12.60
2019-02-19T12:36:24.085Z,12.70
2019-02-19T12:38:50.283Z,12.70
2019-02-19T12:41:16.491Z,12.80
2019-02-19T12:43:42.714Z,12.90
2019-02-19T12:46:08.914Z,13.00
2019-02-19T12:48:35.143Z,13.20
2019-02-19T12:51:01.586Z,13.20
2019-02-19T12:53:27.815Z,13.20
2019-02-19T12:55:54.013Z,13.30
2019-02-19T12:58:20.253Z,13.10
2019-02-19T13:00:47.530Z,13.20
2019-02-19T13:03:13.730Z,13.20
2019-02-19T13:05:40.047Z,13.20
2019-02-19T13:08:06.268Z,13.50
2019-02-19T13:10:32.482Z,13.50
2019-02-19T13:12:58.689Z,13.40
2019-02-19T13:15:24.918Z,13.50
2019-02-19T13:17:51.121Z,13.40
2019-02-19T13:20:17.705Z,13.20
2019-02-19T13:22:43.933Z,13.00
2019-02-19T13:25:10.964Z,13.10
2019-02-19T13:27:37.162Z,13.10
2019-02-19T13:30:18.179Z,13.20
2019-02-19T13:32:44.552Z,13.00
2019-02-19T13:35:11.927Z,12.80
2019-02-19T13:37:38.146Z,12.50
2019-02-19T13:40:13.926Z,12.30
2019-02-19T13:42:40.262Z,12.20
2019-02-19T13:45:09.292Z,12.20
2019-02-19T13:47:35.619Z,12.50
2019-02-19T13:50:02.322Z,12.80
2019-02-19T13:52:30.445Z,12.90
2019-02-19T13:54:56.650Z,12.90
2019-02-19T13:57:22.978Z,13.00
2019-02-19T13:59:49.186Z,13.40
2019-02-19T14:02:15.582Z,13.50
2019-02-19T14:04:41.801Z,13.50
2019-02-19T14:07:08.001Z,13.50
2019-02-19T14:09:34.231Z,13.30
2019-02-19T14:12:00.443Z,13.20
2019-02-19T14:14:28.683Z,13.20
2019-02-19T14:16:56.810Z,12.90
2019-02-19T14:19:24.929Z,12.70
2019-02-19T14:22:18.597Z,12.60
2019-02-19T14:25:03.460Z,12.70
2019-02-19T14:27:31.589Z,13.10
2019-02-19T14:30:18.439Z,13.20
2019-02-19T14:32:46.678Z,13.20
2019-02-19T14:35:31.642Z,12.90
2019-02-19T14:45:34.806Z,14.90
2019-02-19T14:48:19.558Z,15.00
2019-02-19T14:50:50.832Z,15.70
2019-02-19T14:53:19.043Z,16.40
2019-02-19T14:56:03.774Z,17.30
2019-02-19T14:58:31.907Z,18.00
2019-02-19T15:01:03.052Z,18.70
2019-02-19T15:03:46.235Z,19.60
2019-02-19T15:06:14.419Z,20.10
2019-02-19T15:08:54.997Z,21.00
2019-02-19T15:11:25.890Z,21.50
2019-02-19T15:14:10.857Z,20.30
2019-02-19T15:16:41.778Z,21.00
2019-02-19T15:19:18.384Z,21.10
2019-02-19T15:21:42.839Z,21.00
2019-02-19T15:24:16.806Z,20.70
2019-02-19T15:26:50.614Z,21.00
2019-02-19T15:29:18.730Z,21.00
2019-02-19T15:31:52.923Z,20.70
2019-02-19T15:34:23.795Z,20.90
2019-02-19T15:37:10.671Z,20.30
2019-02-19T15:39:39.062Z,20.30
2019-02-19T15:42:07.199Z,20.00
2019-02-19T15:44:47.346Z,20.00
2019-02-19T15:47:32.367Z,20.60
2019-02-19T15:50:06.272Z,20.50
2019-02-19T15:52:43.219Z,20.70
2019-02-19T15:55:11.403Z,20.80
2019-02-19T15:57:39.538Z,20.50
2019-02-19T16:00:26.308Z,20.70
2019-02-19T16:02:54.715Z,19.50
2019-02-19T16:05:32.331Z,18.80
2019-02-19T16:08:03.307Z,18.40
2019-02-19T16:10:34.160Z,16.90
2019-02-19T16:13:08.540Z,16.20
2019-02-19T16:15:42.651Z,15.40
2019-02-19T16:18:26.546Z,14.60
2019-02-19T16:21:03.704Z,13.90
2019-02-19T16:23:31.827Z,13.00
2019-02-19T16:26:05.736Z,12.60
2019-02-19T16:28:36.872Z,12.20
2019-02-19T16:31:13.834Z,11.80
2019-02-19T16:33:41.974Z,11.70
2019-02-19T16:36:19.117Z,11.50
2019-02-19T16:38:50.006Z,11.30
2019-02-19T16:41:21.173Z,11.10
2019-02-19T16:43:58.194Z,10.90
2019-02-19T16:46:38.359Z,10.80
2019-02-19T16:49:06.699Z,10.60
2019-02-19T16:51:37.570Z,10.60
2019-02-19T16:54:05.894Z,10.50
2019-02-19T16:56:37.022Z,10.30
2019-02-19T16:59:17.215Z,10.30
2019-02-19T17:01:54.732Z,10.20
2019-02-19T17:04:26.186Z,10.10
2019-02-19T17:06:54.318Z,10.00
2019-02-19T17:09:22.463Z,9.90
2019-02-19T17:11:53.658Z,9.70
2019-02-19T17:14:33.811Z,9.70
2019-02-19T17:17:08.044Z,9.70
2019-02-19T17:19:55.066Z,9.60
2019-02-19T17:22:41.254Z,9.60
2019-02-19T17:25:12.105Z,9.50
2019-02-19T17:27:41.010Z,9.50
2019-02-19T17:30:25.579Z,9.40
2019-02-19T17:32:59.759Z,9.40
2019-02-19T17:35:30.983Z,9.30
2019-02-19T17:38:18.802Z,9.20
2019-02-19T17:41:01.913Z,9.20
2019-02-19T17:43:42.166Z,9.10
2019-02-19T17:46:11.018Z,9.10
2019-02-19T17:48:39.168Z,9.10
2019-02-19T17:51:24.095Z,9.10
2019-02-19T17:53:52.335Z,9.00
2019-02-19T17:56:26.345Z,9.00
2019-02-19T17:58:57.822Z,8.90
2019-02-19T18:01:26.158Z,8.90
2019-02-19T18:03:54.310Z,8.80
2019-02-19T18:06:34.108Z,8.70
2019-02-19T18:09:05.332Z,8.60
2019-02-19T18:11:39.479Z,8.60
2019-02-19T18:14:10.620Z,8.60
2019-02-19T18:16:38.765Z,8.60
2019-02-19T18:19:05.101Z,8.60
2019-02-19T18:21:31.298Z,8.60
2019-02-19T18:23:57.526Z,8.60
2019-02-19T18:26:23.748Z,8.60
2019-02-19T18:28:49.990Z,8.50
2019-02-19T18:31:16.242Z,8.40
2019-02-19T18:33:42.506Z,8.30
2019-02-19T18:36:11.606Z,8.20
2019-02-19T18:38:37.826Z,8.30
2019-02-19T18:41:04.256Z,8.30
2019-02-19T18:43:30.549Z,8.30
2019-02-19T18:45:56.866Z,8.30
2019-02-19T18:48:23.120Z,8.40
2019-02-19T18:50:58.161Z,8.40
2019-02-19T18:53:17.457Z,8.30
2019-02-19T18:55:43.886Z,8.40
2019-02-19T18:58:10.154Z,8.30
2019-02-19T19:00:36.389Z,8.30
2019-02-19T19:03:02.991Z,8.30
2019-02-19T19:05:30.028Z,8.30
2019-02-19T19:07:56.661Z,8.20
2019-02-19T19:10:22.983Z,8.20
2019-02-19T19:12:49.200Z,8.20
2019-02-19T19:15:15.432Z,8.20
2019-02-19T19:17:41.644Z,8.20
2019-02-19T19:20:09.874Z,8.20
2019-02-19T19:22:36.122Z,8.10
2019-02-19T19:25:03.491Z,8.10
2019-02-19T19:27:29.771Z,8.10
2019-02-19T19:29:56.099Z,8.10
2019-02-19T19:32:22.346Z,8.10
2019-02-19T19:34:48.696Z,8.00
2019-02-19T19:37:14.909Z,8.00
2019-02-19T19:39:41.299Z,7.90
2019-02-19T19:42:08.015Z,7.90
2019-02-19T19:44:34.228Z,7.90
2019-02-19T19:47:00.461Z,7.80
2019-02-19T19:49:26.683Z,7.80
2019-02-19T19:51:53.012Z,7.80
2019-02-19T19:54:19.318Z,7.80
2019-02-19T19:56:45.554Z,7.70
2019-02-19T19:59:11.756Z,7.60
2019-02-19T20:01:38.033Z,7.60
2019-02-19T20:04:04.238Z,7.60
2019-02-19T20:06:30.484Z,7.60
2019-02-19T20:08:56.694Z,7.50
2019-02-19T20:11:22.932Z,7.50
2019-02-19T20:13:49.149Z,7.40
2019-02-19T20:16:15.482Z,7.30
2019-02-19T20:18:41.699Z,7.20
2019-02-19T20:21:07.925Z,7.10
2019-02-19T20:23:34.144Z,7.00
2019-02-19T20:26:00.354Z,6.90
2019-02-19T20:28:26.607Z,6.70
2019-02-19T20:30:52.927Z,6.80
2019-02-19T20:33:19.212Z,6.70
2019-02-19T20:35:45.623Z,6.60
2019-02-19T20:38:11.850Z,6.50
2019-02-19T20:40:38.064Z,6.30
2019-02-19T20:43:04.327Z,6.30
2019-02-19T20:45:30.598Z,6.30
2019-02-19T20:47:56.830Z,6.20
2019-02-19T20:50:23.044Z,6.20
2019-02-19T20:52:49.274Z,6.20
2019-02-19T20:55:15.510Z,6.10
2019-02-19T20:57:41.736Z,6.00
2019-02-19T21:00:12.264Z,6.10
2019-02-19T21:02:38.641Z,6.00
2019-02-19T21:05:08.139Z,6.00
2019-02-19T21:07:34.403Z,6.00
2019-02-19T21:10:00.632Z,6.00
2019-02-19T21:12:26.996Z,5.90
2019-02-19T21:14:53.203Z,6.00
2019-02-19T21:17:19.415Z,5.90
2019-02-19T21:19:45.780Z,5.80
2019-02-19T21:22:12.519Z,5.80
2019-02-19T21:24:38.887Z,5.70
2019-02-19T21:27:05.127Z,5.70
2019-02-19T21:29:31.640Z,5.70
2019-02-19T21:31:57.839Z,5.70
2019-02-19T21:34:24.072Z,5.70
2019-02-19T21:36:50.554Z,5.60
2019-02-19T21:39:16.794Z,5.60
2019-02-19T21:41:43.227Z,5.50
2019-02-19T21:44:09.466Z,5.60
2019-02-19T21:46:35.679Z,5.60
2019-02-19T21:49:01.885Z,5.60
2019-02-19T21:51:28.126Z,5.60
2019-02-19T21:53:54.428Z,5.60
2019-02-19T21:56:20.645Z,5.50
2019-02-19T21:58:47.194Z,5.50
2019-02-19T22:01:13.490Z,5.50
2019-02-19T22:03:39.698Z,5.60
2019-02-19T22:06:06.160Z,5.60
2019-02-19T22:08:32.374Z,5.70
2019-02-19T22:10:58.598Z,5.60
2019-02-19T22:13:24.825Z,5.50
2019-02-19T22:15:51.060Z,5.40
2019-02-19T22:18:17.353Z,5.50
2019-02-19T22:20:51.058Z,5.50
2019-02-19T22:23:17.267Z,5.50
2019-02-19T22:25:43.593Z,5.50
2019-02-19T22:28:09.806Z,5.40
2019-02-19T22:30:36.041Z,5.40
2019-02-19T22:33:02.344Z,5.40
2019-02-19T22:35:28.569Z,5.30
2019-02-19T22:37:54.778Z,5.30
2019-02-19T22:40:21.001Z,5.30
2019-02-19T22:42:47.211Z,5.30
2019-02-19T22:45:13.525Z,5.30
2019-02-19T22:47:39.733Z,5.30
2019-02-19T22:50:07.770Z,5.30
2019-02-19T22:52:33.965Z,5.30
2019-02-19T22:55:04.854Z,5.20
2019-02-19T22:57:31.061Z,5.20
2019-02-19T22:59:57.270Z,5.20
2019-02-19T23:02:23.902Z,5.20
2019-02-19T23:04:50.116Z,5.20
2019-02-19T23:07:16.355Z,5.30
2019-02-19T23:09:42.602Z,5.30
2019-02-19T23:12:08.835Z,5.30
2019-02-19T23:14:35.062Z,5.30
2019-02-19T23:17:01.278Z,5.30
2019-02-19T23:19:27.490Z,5.20
2019-02-19T23:21:53.706Z,5.20
2019-02-19T23:24:19.928Z,5.20
2019-02-19T23:26:46.231Z,5.10
2019-02-19T23:29:12.443Z,5.10
2019-02-19T23:31:38.666Z,5.10
2019-02-19T23:34:10.906Z,5.10
2019-02-19T23:36:39.034Z,5.00
2019-02-19T23:39:06.042Z,5.10
2019-02-19T23:41:32.452Z,5.10
2019-02-19T23:44:01.510Z,5.00
2019-02-19T23:46:27.734Z,5.00
2019-02-19T23:48:53.938Z,4.90
2019-02-19T23:51:20.174Z,5.00
2019-02-19T23:53:46.378Z,5.00
2019-02-19T23:56:12.591Z,4.90
2019-02-19T23:58:38.861Z,5.00
